Sand Lake, Michigan
Current Conditions -  °F | °C
As of 3:15 PM on Monday 24 Nov 2014 (Local Time) from KFFX Reporting Station
Light Rain Light Rain  
Wind Chill: 30°   Ceiling: 1100
Heat Index: 39°   Visibility: 7mi
Dew Point: 37°   Wind: 17mph
Humidity: 93%   Direction: 240°WSW
Pressure: 29.2"   Gusts: 35mph
Location:  43.29°N, 85.52°W
Report Text: KFFX 242015Z AUTO 24015G30KT 7SM -RA BKN011 OVC016 04/03 A2920 RMK AO2 T00400030
Loading
Personal Weather Stations






























Interactive Weather Map New forecast layout! Learn more

10-Day Weather Forecast

Advertisements
Track Severe Weather on mobile